עמוד ראשי
METAR-TAF:

METAR-TAF

שדות תעופה :

Colville Lake, הטריטוריות הצפון-מערביות, קנדה

קו רוחב: 67-01-16N, קו אורך: 126-07-43W, גובה: 274מטר

תצפית מזג אוויר נוכחית

הדו"ח נערך לפני 40דקות, בשעה 10:00 UTC
רוח 4קשר מכיוון צפון-מזרח
טמפרטורת 6 צלסיוס
לחות 81%
לחץ 1021 hPa
ראות: 14.5קילומטר
שמיים נקיים

METAR: CYVL 151000Z AUTO 04004KT 9SM CLR 06/03 A3014 RMK SLP223

זמן: 04:40 (10:40 UTC)


TAF: חסר

תצפיות ותחזיות מזג אוויר לגבי יותר מ- 4,000 שדות תעופה ברחבי העולם. דוחות METAR ו- TAF.

התחנות הזמינות מסומנות בנקודות צהובות ואדומות על גבי המפה.

העבר את העכבר לנקודה הצבעונית על מנת לראות את שם התחנה.

לאחר מכן, לחץ כדי לראות את תוכן ואת תחזיות מזג האוויר.

כדי לשנות את המפה: לחץ על הכפתורים הירוקים עם הפלוס השחור כדי להתקרב; על הכפתור הירוק עם המקף כדי להתרחק; או בחיצים הירוקים למפות סמוכות.


METAR-TAF: